createdAt,value
2023-02-21T00:00:08.099Z,11.26
2023-02-21T00:02:34.492Z,11.53
2023-02-21T00:05:00.978Z,10.84
2023-02-21T00:07:27.436Z,10.67
2023-02-21T00:09:53.816Z,11.05
2023-02-21T00:12:20.188Z,10.50
2023-02-21T00:14:46.538Z,10.09
2023-02-21T00:17:12.917Z,9.88
2023-02-21T00:19:39.341Z,10.39
2023-02-21T00:22:05.728Z,10.30
2023-02-21T00:24:32.117Z,10.63
2023-02-21T00:26:58.525Z,10.95
2023-02-21T00:29:24.889Z,11.22
2023-02-21T00:31:51.270Z,10.92
2023-02-21T00:34:17.765Z,10.70
2023-02-21T00:36:44.153Z,10.50
2023-02-21T00:39:10.554Z,10.60
2023-02-21T00:41:38.861Z,10.32
2023-02-21T00:44:05.261Z,10.70
2023-02-21T00:46:31.664Z,10.68
2023-02-21T00:48:58.052Z,10.86
2023-02-21T00:51:24.442Z,11.10
2023-02-21T00:53:50.843Z,11.12
2023-02-21T00:56:17.219Z,11.04
2023-02-21T00:58:43.585Z,11.01
2023-02-21T01:01:09.958Z,11.00
2023-02-21T01:03:36.352Z,10.88
2023-02-21T01:06:02.755Z,10.69
2023-02-21T01:08:29.200Z,10.78
2023-02-21T01:10:55.581Z,11.46
2023-02-21T01:13:21.988Z,11.26
2023-02-21T01:15:48.384Z,11.24
2023-02-21T01:18:14.766Z,11.75
2023-02-21T01:20:41.212Z,12.26
2023-02-21T01:23:07.581Z,11.48
2023-02-21T01:25:33.956Z,11.49
2023-02-21T01:28:00.321Z,11.47
2023-02-21T01:30:26.810Z,12.38
2023-02-21T01:32:53.212Z,11.78
2023-02-21T01:35:19.590Z,11.79
2023-02-21T01:37:45.981Z,11.74
2023-02-21T01:40:12.333Z,12.12
2023-02-21T01:42:38.703Z,11.95
2023-02-21T01:45:05.085Z,11.99
2023-02-21T01:47:31.469Z,11.52
2023-02-21T01:49:57.905Z,11.20
2023-02-21T01:52:24.350Z,10.94
2023-02-21T01:54:50.735Z,10.99
2023-02-21T01:57:17.108Z,11.02
2023-02-21T01:59:43.492Z,11.30
2023-02-21T02:02:09.870Z,11.19
2023-02-21T02:04:36.293Z,11.41
2023-02-21T02:07:02.744Z,11.21
2023-02-21T02:09:29.131Z,11.52
2023-02-21T02:11:55.504Z,11.64
2023-02-21T02:14:21.874Z,12.26
2023-02-21T02:16:48.261Z,12.73
2023-02-21T02:19:14.656Z,12.61
2023-02-21T02:21:41.064Z,11.64
2023-02-21T02:24:07.429Z,11.89
2023-02-21T02:26:33.883Z,11.98
2023-02-21T02:29:00.269Z,12.22
2023-02-21T02:31:26.874Z,12.30
2023-02-21T02:33:53.311Z,12.33
2023-02-21T02:36:19.730Z,13.42
2023-02-21T02:38:46.152Z,14.55
2023-02-21T02:41:12.780Z,13.41
2023-02-21T02:43:39.360Z,13.12
2023-02-21T02:46:05.785Z,13.14
2023-02-21T02:48:32.219Z,12.20
2023-02-21T02:50:58.585Z,12.85
2023-02-21T02:53:24.966Z,12.73
2023-02-21T02:55:51.395Z,12.30
2023-02-21T02:58:17.749Z,13.19
2023-02-21T03:00:44.136Z,12.99
2023-02-21T03:03:10.536Z,13.22
2023-02-21T03:05:36.967Z,13.28
2023-02-21T03:08:03.352Z,13.54
2023-02-21T03:10:29.754Z,13.80
2023-02-21T03:12:56.162Z,13.80
2023-02-21T03:15:22.580Z,14.59
2023-02-21T03:17:48.954Z,13.92
2023-02-21T03:20:15.315Z,14.19
2023-02-21T03:22:41.673Z,13.83
2023-02-21T03:25:08.032Z,13.87
2023-02-21T03:27:34.412Z,12.86
2023-02-21T03:30:00.811Z,12.58
2023-02-21T03:32:27.204Z,12.06
2023-02-21T03:34:53.587Z,11.95
2023-02-21T03:37:20.026Z,11.68
2023-02-21T03:39:46.406Z,11.74
2023-02-21T03:42:12.814Z,11.67
2023-02-21T03:44:39.205Z,11.59
2023-02-21T03:47:05.601Z,11.97
2023-02-21T03:49:32.024Z,12.69
2023-02-21T03:51:58.383Z,12.01
2023-02-21T03:54:24.777Z,11.55
2023-02-21T03:56:51.199Z,11.58
2023-02-21T03:59:17.669Z,11.88
2023-02-21T04:01:44.153Z,12.35
2023-02-21T04:04:13.553Z,13.43
2023-02-21T04:06:39.927Z,14.68
2023-02-21T04:09:06.287Z,15.62
2023-02-21T04:11:32.755Z,16.44
2023-02-21T04:13:59.140Z,16.40
2023-02-21T04:16:25.649Z,15.30
2023-02-21T04:18:52.109Z,15.39
2023-02-21T04:21:18.479Z,14.69
2023-02-21T04:23:44.863Z,15.07
2023-02-21T04:26:11.222Z,14.21
2023-02-21T04:28:37.664Z,14.79
2023-02-21T04:31:04.099Z,14.78
2023-02-21T04:33:30.495Z,15.52
2023-02-21T04:35:56.878Z,15.36
2023-02-21T04:38:23.282Z,15.41
2023-02-21T04:40:49.656Z,15.87
2023-02-21T04:43:17.049Z,16.60
2023-02-21T04:45:43.463Z,16.68
2023-02-21T04:48:09.864Z,17.15
2023-02-21T04:50:36.213Z,18.12
2023-02-21T04:53:02.601Z,17.15
2023-02-21T04:55:28.991Z,16.44
2023-02-21T04:57:55.434Z,16.76
2023-02-21T05:00:21.831Z,16.11
2023-02-21T05:02:48.190Z,16.20
2023-02-21T05:05:14.664Z,16.24
2023-02-21T05:07:41.078Z,16.01
2023-02-21T05:10:07.478Z,15.90
2023-02-21T05:12:33.848Z,15.88
2023-02-21T05:15:00.263Z,16.03
2023-02-21T05:17:26.710Z,16.46
2023-02-21T05:19:53.164Z,15.91
2023-02-21T05:22:19.609Z,14.30
2023-02-21T05:24:47.836Z,14.02
2023-02-21T05:27:14.278Z,14.49
2023-02-21T05:29:40.654Z,14.90
2023-02-21T05:32:07.096Z,15.57
2023-02-21T05:34:33.533Z,15.34
2023-02-21T05:36:59.908Z,15.36
2023-02-21T05:39:26.361Z,15.78
2023-02-21T05:41:52.771Z,15.47
2023-02-21T05:44:19.134Z,15.77
2023-02-21T05:46:46.261Z,16.43
2023-02-21T05:49:12.653Z,15.89
2023-02-21T05:51:39.064Z,15.80
2023-02-21T05:54:05.466Z,16.55
2023-02-21T05:56:31.835Z,16.37
2023-02-21T05:58:58.232Z,15.19
2023-02-21T06:01:24.630Z,15.13
2023-02-21T06:03:51.106Z,15.65
2023-02-21T06:06:17.719Z,15.20
2023-02-21T06:08:44.069Z,16.02
2023-02-21T06:11:10.455Z,15.90
2023-02-21T06:13:36.816Z,15.45
2023-02-21T06:16:03.241Z,16.44
2023-02-21T06:18:29.685Z,14.62
2023-02-21T06:20:56.098Z,14.50
2023-02-21T06:23:22.494Z,14.20
2023-02-21T06:25:48.886Z,14.31
2023-02-21T06:28:15.291Z,14.68
2023-02-21T06:30:41.736Z,14.23
2023-02-21T06:33:08.165Z,14.18
2023-02-21T06:35:34.552Z,13.46
2023-02-21T06:38:00.928Z,12.75
2023-02-21T06:40:27.304Z,12.93
2023-02-21T06:42:53.675Z,12.98
2023-02-21T06:45:20.070Z,12.61
2023-02-21T06:47:46.458Z,12.48
2023-02-21T06:50:12.814Z,13.07
2023-02-21T06:52:39.222Z,14.24
2023-02-21T06:55:05.611Z,14.86
2023-02-21T06:57:31.969Z,14.14
2023-02-21T06:59:58.353Z,15.97
2023-02-21T07:02:24.726Z,17.35
2023-02-21T07:04:51.168Z,15.50
2023-02-21T07:07:17.567Z,14.08
2023-02-21T07:09:43.940Z,12.96
2023-02-21T07:12:10.326Z,12.59
2023-02-21T07:14:36.731Z,12.52
2023-02-21T07:17:03.132Z,13.49
2023-02-21T07:19:29.537Z,13.40
2023-02-21T07:21:55.947Z,13.11
2023-02-21T07:24:22.313Z,13.20
2023-02-21T07:26:48.690Z,13.57
2023-02-21T07:29:15.165Z,13.92
2023-02-21T07:31:41.660Z,13.73
2023-02-21T07:34:08.118Z,14.39
2023-02-21T07:36:34.492Z,15.80
2023-02-21T07:39:00.886Z,16.09
2023-02-21T07:41:27.290Z,15.72
2023-02-21T07:43:53.655Z,15.84
2023-02-21T07:46:20.089Z,15.26
2023-02-21T07:48:46.502Z,14.91
2023-02-21T07:51:13.010Z,15.31
2023-02-21T07:53:39.455Z,15.55
2023-02-21T07:56:05.838Z,15.16
2023-02-21T07:58:32.264Z,14.96
2023-02-21T08:00:58.626Z,15.74
2023-02-21T08:03:25.035Z,14.58
2023-02-21T08:05:51.437Z,14.22
2023-02-21T08:08:17.798Z,11.72
2023-02-21T08:10:44.159Z,9.85
2023-02-21T08:13:10.538Z,11.79
2023-02-21T08:15:36.948Z,13.11
2023-02-21T08:18:03.332Z,12.91
2023-02-21T08:20:29.706Z,13.06
2023-02-21T08:22:56.119Z,13.02
2023-02-21T08:25:22.538Z,13.44
2023-02-21T08:27:48.903Z,13.52
2023-02-21T08:30:15.396Z,14.07
2023-02-21T08:32:41.829Z,14.54
2023-02-21T08:35:08.222Z,14.57
2023-02-21T08:37:34.577Z,15.35
2023-02-21T08:40:00.991Z,15.20
2023-02-21T08:42:27.353Z,15.68
2023-02-21T08:44:53.710Z,15.04
2023-02-21T08:47:20.098Z,15.59
2023-02-21T08:49:46.510Z,16.41
2023-02-21T08:52:12.947Z,16.68
2023-02-21T08:54:39.321Z,16.51
2023-02-21T08:57:05.727Z,16.10
2023-02-21T08:59:32.246Z,17.76
2023-02-21T09:01:58.735Z,18.37
2023-02-21T09:04:25.131Z,18.61
2023-02-21T09:06:51.557Z,19.33
2023-02-21T09:09:17.911Z,18.94
2023-02-21T09:11:44.270Z,19.59
2023-02-21T09:14:10.659Z,19.70
2023-02-21T09:16:37.054Z,20.20
2023-02-21T09:19:03.454Z,19.24
2023-02-21T09:21:29.826Z,19.30
2023-02-21T09:23:56.198Z,18.74
2023-02-21T09:26:22.574Z,19.94
2023-02-21T09:28:48.981Z,19.99
2023-02-21T09:31:15.577Z,20.17
2023-02-21T09:33:42.151Z,20.49
2023-02-21T09:36:08.544Z,20.55
2023-02-21T09:38:34.924Z,20.75
2023-02-21T09:41:01.318Z,20.08
2023-02-21T09:43:27.701Z,20.24
2023-02-21T09:45:54.174Z,19.69
2023-02-21T09:48:20.585Z,20.25
2023-02-21T09:50:46.944Z,20.05
2023-02-21T09:53:13.313Z,19.49
2023-02-21T09:55:39.738Z,19.33
2023-02-21T09:58:06.096Z,19.01
2023-02-21T10:00:32.557Z,18.81
2023-02-21T10:02:58.981Z,19.64
2023-02-21T10:05:25.387Z,20.07
2023-02-21T10:07:51.766Z,19.79
2023-02-21T10:10:18.158Z,20.16
2023-02-21T10:12:44.596Z,20.69
2023-02-21T10:15:10.984Z,21.00
2023-02-21T10:17:37.373Z,20.29
2023-02-21T10:20:03.768Z,21.00
2023-02-21T10:22:30.197Z,20.92
2023-02-21T10:24:56.661Z,20.60
2023-02-21T10:27:23.030Z,20.20
2023-02-21T10:29:49.460Z,20.44
2023-02-21T10:32:16.032Z,20.63
2023-02-21T10:34:42.431Z,18.97
2023-02-21T10:37:08.823Z,18.97
2023-02-21T10:39:35.220Z,19.22
2023-02-21T10:42:01.582Z,18.99
2023-02-21T10:44:27.969Z,19.75
2023-02-21T10:46:54.383Z,19.00
2023-02-21T10:49:20.760Z,19.37
2023-02-21T10:51:47.152Z,18.95
2023-02-21T10:54:13.589Z,19.28
2023-02-21T10:56:40.032Z,18.56
2023-02-21T10:59:06.445Z,18.83
2023-02-21T11:01:32.895Z,18.69
2023-02-21T11:03:59.407Z,19.12
2023-02-21T11:06:27.925Z,18.61
2023-02-21T11:08:54.449Z,18.89
2023-02-21T11:11:20.821Z,18.97
2023-02-21T11:13:47.222Z,18.84
2023-02-21T11:16:13.647Z,18.93
2023-02-21T11:18:40.105Z,19.02
2023-02-21T11:21:06.503Z,19.45
2023-02-21T11:23:32.885Z,19.27
2023-02-21T11:25:59.292Z,19.97
2023-02-21T11:28:25.662Z,19.25
2023-02-21T11:30:52.074Z,19.40
2023-02-21T11:33:18.571Z,19.72
2023-02-21T11:35:44.949Z,19.64
2023-02-21T11:38:11.330Z,19.48
2023-02-21T11:40:37.742Z,19.15
2023-02-21T11:43:04.140Z,19.55
2023-02-21T11:45:30.561Z,19.61
2023-02-21T11:47:56.918Z,19.46
2023-02-21T11:50:23.324Z,19.64
2023-02-21T11:52:49.705Z,19.19
2023-02-21T11:55:16.073Z,19.47
2023-02-21T11:57:42.477Z,19.46
2023-02-21T12:00:08.881Z,18.60
2023-02-21T12:02:35.343Z,18.64
2023-02-21T12:05:01.732Z,18.08
2023-02-21T12:07:28.140Z,18.00
2023-02-21T12:09:54.498Z,18.28
2023-02-21T12:12:20.880Z,17.72
2023-02-21T12:14:47.253Z,18.28
2023-02-21T12:17:15.139Z,17.02
2023-02-21T12:19:41.680Z,17.43
2023-02-21T12:22:08.034Z,17.17
2023-02-21T12:24:34.580Z,17.14
2023-02-21T12:27:00.991Z,16.90
2023-02-21T12:29:27.493Z,16.46
2023-02-21T12:31:53.944Z,16.24
2023-02-21T12:34:20.416Z,16.71
2023-02-21T12:36:46.804Z,17.18
2023-02-21T12:39:13.223Z,16.90
2023-02-21T12:41:39.607Z,17.21
2023-02-21T12:44:05.968Z,16.11
2023-02-21T12:46:32.392Z,16.55
2023-02-21T12:48:58.853Z,15.34
2023-02-21T12:51:25.282Z,14.75
2023-02-21T12:53:51.665Z,14.69
2023-02-21T12:56:18.029Z,14.77
2023-02-21T12:58:44.392Z,14.40
2023-02-21T13:01:10.795Z,13.79
2023-02-21T13:03:37.204Z,14.46
2023-02-21T13:06:03.600Z,14.02
2023-02-21T13:08:29.974Z,14.85
2023-02-21T13:10:56.340Z,14.54
2023-02-21T13:13:22.682Z,14.13
2023-02-21T13:15:49.147Z,13.56
2023-02-21T13:18:15.617Z,13.74
2023-02-21T13:20:42.066Z,13.88
2023-02-21T13:23:08.474Z,13.88
2023-02-21T13:25:34.912Z,14.36
2023-02-21T13:28:01.276Z,15.19
2023-02-21T13:30:27.743Z,15.29
2023-02-21T13:32:54.188Z,14.56
2023-02-21T13:35:20.568Z,15.53
2023-02-21T13:37:46.951Z,15.45
2023-02-21T13:40:13.344Z,14.98
2023-02-21T13:42:39.731Z,15.41
2023-02-21T13:45:06.282Z,14.96
2023-02-21T13:47:32.669Z,15.01
2023-02-21T13:49:59.078Z,15.74
2023-02-21T13:52:25.502Z,15.39
2023-02-21T13:54:52.070Z,14.55
2023-02-21T13:57:18.470Z,15.57
2023-02-21T13:59:44.846Z,15.92
2023-02-21T14:02:11.257Z,15.80
2023-02-21T14:04:37.613Z,16.33
2023-02-21T14:07:04.035Z,15.82
2023-02-21T14:09:30.405Z,16.24
2023-02-21T14:11:56.766Z,15.92
2023-02-21T14:14:23.139Z,15.71
2023-02-21T14:16:49.580Z,14.60
2023-02-21T14:19:15.978Z,15.08
2023-02-21T14:21:42.357Z,15.22
2023-02-21T14:24:08.780Z,14.76
2023-02-21T14:26:35.195Z,14.35
2023-02-21T14:29:01.603Z,14.52
2023-02-21T14:31:28.050Z,14.39
2023-02-21T14:33:54.426Z,14.40
2023-02-21T14:36:21.854Z,15.04
2023-02-21T14:38:50.210Z,14.94
2023-02-21T14:41:16.857Z,15.18
2023-02-21T14:43:43.397Z,14.90
2023-02-21T14:46:09.823Z,15.08
2023-02-21T14:48:36.214Z,14.21
2023-02-21T14:51:02.581Z,14.63
2023-02-21T14:53:28.997Z,14.25
2023-02-21T14:55:55.416Z,14.17
2023-02-21T14:58:21.818Z,13.78
2023-02-21T15:00:48.249Z,13.83
2023-02-21T15:03:14.681Z,13.50
2023-02-21T15:05:41.073Z,13.28
2023-02-21T15:08:07.537Z,13.38
2023-02-21T15:10:33.956Z,12.89
2023-02-21T15:13:00.388Z,12.63
2023-02-21T15:15:26.788Z,12.36
2023-02-21T15:17:53.154Z,12.10
2023-02-21T15:20:19.522Z,12.75
2023-02-21T15:22:45.904Z,11.93
2023-02-21T15:25:12.292Z,12.18
2023-02-21T15:27:38.673Z,11.37
2023-02-21T15:30:05.060Z,11.13
2023-02-21T15:32:31.463Z,10.90
2023-02-21T15:34:57.826Z,11.17
2023-02-21T15:37:24.203Z,11.46
2023-02-21T15:39:52.489Z,11.84
2023-02-21T15:42:19.812Z,11.41
2023-02-21T15:44:46.191Z,11.04
2023-02-21T15:47:12.552Z,11.31
2023-02-21T15:49:38.929Z,11.26
2023-02-21T15:52:05.318Z,11.21
2023-02-21T15:54:31.691Z,10.80
2023-02-21T15:56:58.177Z,11.71
2023-02-21T15:59:24.556Z,11.14
2023-02-21T16:01:50.943Z,8.82
2023-02-21T16:04:17.328Z,9.65
2023-02-21T16:06:43.692Z,10.99
2023-02-21T16:09:10.062Z,11.29
2023-02-21T16:11:36.472Z,11.16
2023-02-21T16:14:04.115Z,10.57
2023-02-21T16:16:30.651Z,11.22
2023-02-21T16:18:57.025Z,9.38
2023-02-21T16:21:23.376Z,8.86
2023-02-21T16:23:49.754Z,9.95
2023-02-21T16:26:16.130Z,8.57
2023-02-21T16:28:42.521Z,7.94
2023-02-21T16:31:08.939Z,7.69
2023-02-21T16:33:35.353Z,8.08
2023-02-21T16:36:03.481Z,10.43
2023-02-21T16:38:30.067Z,11.07
2023-02-21T16:40:56.471Z,10.45
2023-02-21T16:43:22.861Z,10.64
2023-02-21T16:45:49.243Z,10.84
2023-02-21T16:48:15.693Z,10.97
2023-02-21T16:50:42.071Z,10.82
2023-02-21T16:53:08.464Z,10.72
2023-02-21T16:55:34.831Z,10.53
2023-02-21T16:58:01.237Z,11.17
2023-02-21T17:00:27.626Z,11.08
2023-02-21T17:02:54.081Z,12.31
2023-02-21T17:05:20.475Z,12.74
2023-02-21T17:07:46.874Z,12.78
2023-02-21T17:10:13.229Z,12.97
2023-02-21T17:12:39.585Z,14.51
2023-02-21T17:15:06.000Z,13.43
2023-02-21T17:17:32.390Z,12.49
2023-02-21T17:19:58.752Z,12.78
2023-02-21T17:22:25.132Z,13.62
2023-02-21T17:24:51.533Z,13.71
2023-02-21T17:27:17.929Z,14.23
2023-02-21T17:29:44.294Z,13.62
2023-02-21T17:32:10.724Z,14.31
2023-02-21T17:34:37.099Z,15.02
2023-02-21T17:37:03.522Z,14.94
2023-02-21T17:39:29.865Z,15.53
2023-02-21T17:41:56.241Z,17.19
2023-02-21T17:44:22.612Z,17.16
2023-02-21T17:46:48.996Z,17.22
2023-02-21T17:49:16.537Z,17.25
2023-02-21T17:51:42.963Z,16.94
2023-02-21T17:54:09.370Z,16.70
2023-02-21T17:56:35.762Z,17.63
2023-02-21T17:59:02.147Z,17.99
2023-02-21T18:01:28.566Z,17.36
2023-02-21T18:03:54.948Z,18.41
2023-02-21T18:06:21.342Z,17.24
2023-02-21T18:08:47.716Z,16.74
2023-02-21T18:11:14.259Z,15.67
2023-02-21T18:13:40.779Z,15.89
2023-02-21T18:16:07.277Z,14.72
2023-02-21T18:18:33.654Z,14.41
2023-02-21T18:21:00.015Z,17.23
2023-02-21T18:23:26.445Z,20.36
2023-02-21T18:25:52.811Z,16.76
2023-02-21T18:28:19.163Z,13.84
2023-02-21T18:30:45.583Z,13.01
2023-02-21T18:33:11.980Z,12.79
2023-02-21T18:35:38.382Z,13.14
2023-02-21T18:38:04.753Z,13.03
2023-02-21T18:40:31.142Z,12.76
2023-02-21T18:42:57.540Z,13.24
2023-02-21T18:45:23.922Z,13.28
2023-02-21T18:47:50.321Z,13.57
2023-02-21T18:50:16.690Z,13.72
2023-02-21T18:52:43.081Z,13.99
2023-02-21T18:55:09.472Z,14.12
2023-02-21T18:57:35.830Z,12.87
2023-02-21T19:00:02.219Z,12.59
2023-02-21T19:02:28.638Z,12.38
2023-02-21T19:04:55.037Z,12.08
2023-02-21T19:07:21.413Z,12.25
2023-02-21T19:09:47.775Z,11.28
2023-02-21T19:12:16.565Z,10.95
2023-02-21T19:14:42.949Z,9.60
2023-02-21T19:17:09.343Z,9.14
2023-02-21T19:19:35.740Z,9.72
2023-02-21T19:22:02.113Z,9.62
2023-02-21T19:24:28.511Z,10.13
2023-02-21T19:26:54.911Z,11.78
2023-02-21T19:29:21.314Z,14.06
2023-02-21T19:31:47.861Z,15.42
2023-02-21T19:34:14.303Z,17.77
2023-02-21T19:36:40.690Z,17.99
2023-02-21T19:39:07.089Z,18.91
2023-02-21T19:41:33.474Z,19.26
2023-02-21T19:43:59.868Z,19.19
2023-02-21T19:46:26.261Z,18.41
2023-02-21T19:48:52.651Z,18.77
2023-02-21T19:51:19.029Z,18.94
2023-02-21T19:53:45.425Z,18.17
2023-02-21T19:56:11.834Z,18.41
2023-02-21T19:58:38.418Z,19.41
2023-02-21T20:01:04.837Z,19.90
2023-02-21T20:03:31.292Z,20.11
2023-02-21T20:05:57.670Z,19.34
2023-02-21T20:08:24.118Z,19.02
2023-02-21T20:10:50.497Z,19.26
2023-02-21T20:13:16.892Z,18.91
2023-02-21T20:15:43.277Z,18.31
2023-02-21T20:18:09.655Z,16.64
2023-02-21T20:20:36.061Z,16.86
2023-02-21T20:23:02.455Z,17.93
2023-02-21T20:25:28.840Z,17.95
2023-02-21T20:27:55.238Z,16.86
2023-02-21T20:30:23.270Z,17.26
2023-02-21T20:32:50.934Z,16.58
2023-02-21T20:35:17.320Z,17.13
2023-02-21T20:37:43.694Z,16.35
2023-02-21T20:40:10.068Z,15.34
2023-02-21T20:42:36.466Z,15.37
2023-02-21T20:45:02.841Z,14.91
2023-02-21T20:47:29.261Z,14.95
2023-02-21T20:49:55.656Z,14.87
2023-02-21T20:52:22.030Z,14.76
2023-02-21T20:54:48.408Z,14.68
2023-02-21T20:57:14.784Z,14.72
2023-02-21T20:59:41.176Z,14.21
2023-02-21T21:02:07.546Z,14.16
2023-02-21T21:04:34.012Z,14.84
2023-02-21T21:07:00.386Z,15.33
2023-02-21T21:09:26.751Z,15.80
2023-02-21T21:11:53.166Z,15.76
2023-02-21T21:14:19.541Z,16.13
2023-02-21T21:16:45.946Z,17.04
2023-02-21T21:19:12.365Z,17.49
2023-02-21T21:21:38.760Z,17.55
2023-02-21T21:24:05.150Z,17.23
2023-02-21T21:26:31.524Z,17.85
2023-02-21T21:28:57.908Z,17.83
2023-02-21T21:31:24.278Z,18.68
2023-02-21T21:33:50.657Z,19.17
2023-02-21T21:36:17.085Z,18.81
2023-02-21T21:38:43.473Z,17.47
2023-02-21T21:41:09.877Z,17.61
2023-02-21T21:43:36.253Z,17.73
2023-02-21T21:46:02.693Z,17.71
2023-02-21T21:48:29.072Z,17.07
2023-02-21T21:50:55.539Z,17.51
2023-02-21T21:53:21.941Z,17.50
2023-02-21T21:55:48.302Z,17.15
2023-02-21T21:58:14.674Z,17.03
2023-02-21T22:00:41.039Z,17.27
2023-02-21T22:03:07.433Z,16.21
2023-02-21T22:05:33.809Z,16.41
2023-02-21T22:08:00.215Z,15.68
2023-02-21T22:10:26.619Z,15.99
2023-02-21T22:12:52.991Z,16.22
2023-02-21T22:15:19.399Z,15.65
2023-02-21T22:17:45.807Z,15.91
2023-02-21T22:20:12.205Z,15.52
2023-02-21T22:22:38.594Z,14.75
2023-02-21T22:25:04.980Z,14.29
2023-02-21T22:27:31.373Z,14.48
2023-02-21T22:29:57.740Z,14.87
2023-02-21T22:32:24.156Z,14.96
2023-02-21T22:34:50.556Z,14.76
2023-02-21T22:37:16.944Z,14.78
2023-02-21T22:39:43.293Z,15.26
2023-02-21T22:42:09.685Z,14.54
2023-02-21T22:44:36.057Z,15.13
2023-02-21T22:47:02.428Z,15.73
2023-02-21T22:49:28.838Z,15.64
2023-02-21T22:51:55.219Z,16.31
2023-02-21T22:54:21.618Z,16.46
2023-02-21T22:56:47.985Z,17.81
2023-02-21T22:59:14.387Z,17.19
2023-02-21T23:01:40.760Z,17.43
2023-02-21T23:04:07.159Z,17.34
2023-02-21T23:06:33.560Z,16.68
2023-02-21T23:08:59.961Z,17.34
2023-02-21T23:11:26.369Z,17.08
2023-02-21T23:13:52.750Z,16.97
2023-02-21T23:16:19.250Z,17.17
2023-02-21T23:18:45.714Z,17.42
2023-02-21T23:21:12.101Z,16.82
2023-02-21T23:23:38.510Z,16.53
2023-02-21T23:26:04.892Z,16.21
2023-02-21T23:28:31.326Z,16.37
2023-02-21T23:30:57.718Z,15.99
2023-02-21T23:33:24.102Z,15.74
2023-02-21T23:35:50.482Z,15.42
2023-02-21T23:38:16.870Z,14.67
2023-02-21T23:40:43.237Z,14.38
2023-02-21T23:43:09.663Z,14.27
2023-02-21T23:45:36.045Z,13.47
2023-02-21T23:48:02.411Z,13.77
2023-02-21T23:50:28.785Z,14.11
2023-02-21T23:52:55.410Z,13.53
2023-02-21T23:55:21.791Z,13.90
2023-02-21T23:57:48.149Z,14.11
